Time;durP1;ratioP1;P1;durP2;ratioP2;P2;SDS_P1;SDS_P2;PMS_P1;PMS_P2;Temp;Humidity;BMP_temperature;BMP_pressure;BME280_temperature;BME280_humidity;BME280_pressure;Samples;Min_cycle;Max_cycle;Signal;HPM_P1;HPM_P2
2023/03/12 00:01:58;;;;;;;3.58;1.75;;;;;;;18.17;42.48;101052.88;5032697;28;20033;-69
2023/03/12 00:04:24;;;;;;;4.18;1.90;;;;;;;18.16;42.50;101050.34;5033467;28;20094;-71
2023/03/12 00:06:49;;;;;;;7.93;2.25;;;;;;;18.14;42.35;101045.19;5032766;28;20056;-69
2023/03/12 00:09:14;;;;;;;4.75;2.20;;;;;;;18.13;42.66;101035.59;5032834;28;20374;-69
2023/03/12 00:11:39;;;;;;;4.80;1.92;;;;;;;18.14;42.53;101042.56;5032368;28;20040;-70
2023/03/12 00:14:05;;;;;;;4.80;2.35;;;;;;;18.13;42.62;101039.09;5033269;28;20029;-70
2023/03/12 00:16:31;;;;;;;4.30;1.85;;;;;;;18.12;42.36;101029.50;5032832;28;20037;-69
2023/03/12 00:18:56;;;;;;;4.00;2.05;;;;;;;18.10;42.44;101031.41;5032964;28;20126;-71
2023/03/12 00:21:23;;;;;;;4.18;2.05;;;;;;;18.09;42.33;101027.09;5032627;28;20040;-69
2023/03/12 00:23:49;;;;;;;4.78;2.10;;;;;;;18.08;42.39;101017.50;5032820;28;20041;-69
2023/03/12 00:26:15;;;;;;;4.45;1.90;;;;;;;18.08;42.25;101019.28;5023210;28;20493;-69
2023/03/12 00:28:41;;;;;;;5.40;2.25;;;;;;;18.07;42.22;101010.56;5032535;28;20422;-70
2023/03/12 00:31:18;;;;;;;5.45;1.95;;;;;;;18.07;42.39;101002.66;5032521;28;20457;-71
2023/03/12 00:33:44;;;;;;;4.20;1.80;;;;;;;18.06;42.42;101003.59;5032538;28;20123;-68
2023/03/12 00:36:10;;;;;;;4.38;1.98;;;;;;;18.03;42.32;100998.56;5032333;28;20040;-71
2023/03/12 00:38:36;;;;;;;5.20;2.58;;;;;;;18.03;42.63;101001.19;5032468;28;20106;-71
2023/03/12 00:41:01;;;;;;;3.63;2.00;;;;;;;18.03;42.24;101001.19;5031842;28;20035;-69
2023/03/12 00:43:26;;;;;;;5.35;1.88;;;;;;;18.02;42.14;101001.31;5033317;28;20074;-71
2023/03/12 00:45:52;;;;;;;4.80;2.10;;;;;;;17.98;42.38;100992.81;5032375;28;20116;-69
2023/03/12 00:48:17;;;;;;;4.03;2.33;;;;;;;17.98;42.50;100992.81;5031597;28;20037;-69
2023/03/12 00:50:42;;;;;;;5.30;2.20;;;;;;;17.90;42.24;100985.50;5031937;28;20037;-69
2023/03/12 00:53:07;;;;;;;4.82;2.22;;;;;;;17.90;42.38;100980.22;5022710;28;20265;-69
2023/03/12 00:55:33;;;;;;;5.03;2.05;;;;;;;17.93;42.58;100979.97;5032269;28;20029;-70
2023/03/12 00:57:58;;;;;;;4.53;2.00;;;;;;;17.95;42.59;100985.97;5032913;28;20037;-70
2023/03/12 01:00:23;;;;;;;5.50;2.00;;;;;;;17.94;42.47;100986.94;5031802;28;20072;-69
2023/03/12 01:02:49;;;;;;;5.57;2.20;;;;;;;17.91;42.42;100981.91;5032561;28;20029;-68
2023/03/12 01:05:15;;;;;;;4.82;1.90;;;;;;;17.93;42.31;100984.44;5032046;28;20025;-68
2023/03/12 01:07:40;;;;;;;6.47;2.20;;;;;;;17.89;42.50;100975.91;5027267;28;20132;-68
2023/03/12 01:10:07;;;;;;;6.20;2.30;;;;;;;17.89;42.42;100965.34;5031696;28;20032;-69
2023/03/12 01:12:33;;;;;;;5.28;2.17;;;;;;;17.90;42.31;100966.22;5032138;28;20029;-69
2023/03/12 01:14:58;;;;;;;6.55;2.17;;;;;;;17.89;42.48;100962.72;5032012;28;20765;-69
2023/03/12 01:17:24;;;;;;;5.15;2.03;;;;;;;17.86;42.57;100954.19;5032169;28;20033;-71
2023/03/12 01:19:49;;;;;;;4.75;2.13;;;;;;;17.88;42.43;100962.84;5031946;28;20057;-70
2023/03/12 01:22:14;;;;;;;5.15;2.10;;;;;;;17.87;42.50;100954.06;5031158;28;20036;-70
2023/03/12 01:24:40;;;;;;;5.30;2.05;;;;;;;17.85;42.63;100949.84;5031952;28;20037;-69
2023/03/12 01:27:05;;;;;;;4.07;1.90;;;;;;;17.86;42.69;100960.28;5031283;28;20058;-69
2023/03/12 01:29:30;;;;;;;5.65;2.13;;;;;;;17.83;42.09;100952.63;5031970;28;20252;-69
2023/03/12 01:31:55;;;;;;;6.07;2.20;;;;;;;17.82;42.49;100961.50;5030952;28;20119;-69
2023/03/12 01:34:21;;;;;;;4.85;2.28;;;;;;;17.81;42.50;100967.72;5031973;28;20039;-69
2023/03/12 01:36:46;;;;;;;3.78;2.10;;;;;;;17.80;42.60;100957.28;5046546;28;20142;-69
2023/03/12 01:39:12;;;;;;;4.80;2.08;;;;;;;17.80;42.44;100959.94;5031203;28;20036;-71
2023/03/12 01:41:38;;;;;;;4.75;2.40;;;;;;;17.80;42.34;100952.88;5030882;28;20041;-72
2023/03/12 01:44:04;;;;;;;4.28;2.08;;;;;;;17.78;42.62;100941.59;5031606;28;20044;-68
2023/03/12 01:46:29;;;;;;;4.25;2.30;;;;;;;17.80;42.46;100949.38;5021912;28;20035;-69
2023/03/12 01:49:10;;;;;;;5.10;2.35;;;;;;;17.75;42.62;100934.78;5031365;28;20088;-69
2023/03/12 01:51:39;;;;;;;5.57;2.55;;;;;;;17.77;42.52;100938.13;5031235;28;20481;-70
2023/03/12 01:54:09;;;;;;;4.03;2.10;;;;;;;17.73;42.34;100928.78;5031492;28;20033;-69
2023/03/12 01:56:36;;;;;;;4.80;2.10;;;;;;;17.73;42.52;100930.56;5031584;28;20066;-70
2023/03/12 01:59:08;;;;;;;5.47;2.10;;;;;;;17.76;42.45;100927.69;5030604;28;20139;-70
2023/03/12 02:01:34;;;;;;;5.15;2.40;;;;;;;17.75;42.39;100932.16;5031275;28;20033;-71
2023/03/12 02:04:00;;;;;;;4.85;2.20;;;;;;;17.73;42.40;100922.66;5031429;28;20043;-68
2023/03/12 02:06:38;;;;;;;5.78;2.38;;;;;;;17.71;42.17;100916.69;5031349;28;20028;-70
2023/03/12 02:09:05;;;;;;;5.97;2.17;;;;;;;17.70;42.22;100915.81;5031605;28;20033;-68
2023/03/12 02:11:31;;;;;;;5.38;2.08;;;;;;;17.72;42.27;100913.06;5031164;28;20034;-69
2023/03/12 02:13:56;;;;;;;6.22;2.47;;;;;;;17.70;42.31;100917.63;5031177;28;20029;-70
2023/03/12 02:16:22;;;;;;;5.88;2.47;;;;;;;17.67;42.28;100904.69;5031128;28;20035;-68
2023/03/12 02:18:50;;;;;;;6.72;2.25;;;;;;;17.63;42.17;100890.94;5021389;28;20045;-69
2023/03/12 02:21:22;;;;;;;4.45;2.28;;;;;;;17.68;42.32;100893.19;5030697;28;20381;-69
2023/03/12 02:24:07;;;;;;;5.85;2.30;;;;;;;17.64;42.70;100879.44;5030421;28;20069;-70
2023/03/12 02:26:35;;;;;;;6.10;2.53;;;;;;;17.65;42.17;100882.91;5031089;28;20102;-71
2023/03/12 02:29:00;;;;;;;4.85;2.50;;;;;;;17.65;42.24;100889.00;5030649;28;20099;-68
2023/03/12 02:31:33;;;;;;;7.18;2.38;;;;;;;17.67;42.42;100888.88;5030930;28;20039;-69
2023/03/12 02:33:59;;;;;;;5.97;2.47;;;;;;;17.64;42.51;100891.75;5030570;28;20029;-70
2023/03/12 02:36:25;;;;;;;4.97;2.55;;;;;;;17.65;42.20;100896.91;5029341;28;20048;-69
2023/03/12 02:38:52;;;;;;;5.35;2.42;;;;;;;17.63;42.48;100887.47;5030908;28;20033;-69
2023/03/12 02:41:42;;;;;;;5.90;2.70;;;;;;;17.61;42.22;100890.22;5030463;28;20429;-69
2023/03/12 02:44:13;;;;;;;5.45;2.60;;;;;;;17.62;42.14;100889.25;5029498;28;20439;-69
2023/03/12 02:46:52;;;;;;;6.38;3.00;;;;;;;17.60;42.42;100891.16;5030489;28;20049;-70
2023/03/12 02:49:19;;;;;;;5.28;2.33;;;;;;;17.59;42.03;100900.88;5032105;28;20503;-69
2023/03/12 02:51:46;;;;;;;3.78;2.05;;;;;;;17.58;42.37;100899.19;5030225;28;20041;-69
2023/03/12 02:54:13;;;;;;;7.25;2.75;;;;;;;17.59;42.21;100892.13;5030550;28;20037;-71
2023/03/12 02:56:39;;;;;;;5.72;2.65;;;;;;;17.60;42.18;100901.72;5030703;28;20033;-69
2023/03/12 02:59:06;;;;;;;5.13;2.10;;;;;;;17.61;42.36;100902.53;5030474;28;20429;-70
2023/03/12 03:01:34;;;;;;;6.35;2.83;;;;;;;17.58;42.32;100893.91;5030892;28;20496;-70
2023/03/12 03:04:01;;;;;;;4.78;2.40;;;;;;;17.55;42.24;100880.16;5031053;28;20124;-68
2023/03/12 03:06:26;;;;;;;5.07;2.40;;;;;;;17.59;42.55;100878.94;5030376;28;20037;-69
2023/03/12 03:08:51;;;;;;;5.75;2.45;;;;;;;17.58;42.74;100875.47;5030043;28;20041;-69
2023/03/12 03:11:17;;;;;;;6.38;2.50;;;;;;;17.56;42.26;100882.66;5030592;28;20032;-69
2023/03/12 03:13:43;;;;;;;5.93;2.50;;;;;;;17.54;41.51;100883.72;5025010;28;20119;-69
2023/03/12 03:16:11;;;;;;;5.97;2.40;;;;;;;17.55;40.73;100886.25;5034204;28;20128;-70
2023/03/12 03:18:36;;;;;;;4.93;2.40;;;;;;;17.53;40.58;100880.28;5033988;28;20366;-69
2023/03/12 03:21:07;;;;;;;5.45;2.20;;;;;;;17.56;40.14;100887.06;5033538;28;20067;-71
2023/03/12 03:23:34;;;;;;;5.20;2.33;;;;;;;17.55;39.90;100882.78;5034172;28;20064;-69
2023/03/12 03:25:59;;;;;;;5.53;2.42;;;;;;;17.55;39.90;100877.50;5034013;28;20380;-72
2023/03/12 03:28:27;;;;;;;5.60;2.50;;;;;;;17.54;39.76;100867.94;5033900;28;20036;-69
2023/03/12 03:30:54;;;;;;;4.35;1.98;;;;;;;17.55;39.67;100869.63;5033700;28;20037;-69
2023/03/12 03:33:20;;;;;;;5.13;2.33;;;;;;;17.54;39.64;100866.13;5033469;28;20108;-70
2023/03/12 03:35:47;;;;;;;3.92;2.17;;;;;;;17.56;39.39;100868.63;5033569;28;20132;-69
2023/03/12 03:38:12;;;;;;;5.50;2.63;;;;;;;17.55;39.27;100869.63;5033910;28;20393;-70
2023/03/12 03:40:37;;;;;;;6.22;2.30;;;;;;;17.53;39.40;100861.81;5033648;28;20025;-70
2023/03/12 03:43:03;;;;;;;4.55;2.20;;;;;;;17.54;39.32;100866.13;5033138;28;20119;-71
2023/03/12 03:45:28;;;;;;;4.57;2.38;;;;;;;17.50;38.93;100846.25;5033526;28;20393;-70
2023/03/12 03:47:53;;;;;;;5.65;2.50;;;;;;;17.54;39.09;100846.84;5033652;28;20384;-71
2023/03/12 03:50:19;;;;;;;5.05;2.42;;;;;;;17.55;38.98;100840.63;5032653;28;20132;-71
2023/03/12 03:52:44;;;;;;;4.53;2.30;;;;;;;17.53;38.84;100827.56;5033567;28;20111;-71
2023/03/12 03:55:09;;;;;;;5.43;2.33;;;;;;;17.51;38.70;100826.84;5033335;28;20382;-70
2023/03/12 03:57:35;;;;;;;4.70;2.22;;;;;;;17.54;38.92;100820.50;5033963;28;20028;-71
2023/03/12 04:00:00;;;;;;;5.15;2.38;;;;;;;17.52;38.87;100820.63;5033335;28;20038;-71
2023/03/12 04:02:27;;;;;;;5.05;2.53;;;;;;;17.50;38.31;100816.41;5033519;28;20387;-69
2023/03/12 04:04:56;;;;;;;4.45;2.20;;;;;;;17.50;38.54;100819.91;5032756;28;20595;-69
2023/03/12 04:07:22;;;;;;;5.97;2.40;;;;;;;17.47;38.56;100820.16;5032809;28;20038;-70
2023/03/12 04:09:47;;;;;;;5.47;2.58;;;;;;;17.48;38.46;100820.97;5033423;28;20029;-69
2023/03/12 04:12:12;;;;;;;6.63;2.33;;;;;;;17.49;38.32;100812.94;5033232;28;20041;-70
2023/03/12 04:14:39;;;;;;;6.65;2.63;;;;;;;17.48;38.41;100808.66;5032824;28;20041;-69
2023/03/12 04:17:08;;;;;;;5.32;2.40;;;;;;;17.50;38.26;100805.88;5033448;28;20119;-69
2023/03/12 04:19:34;;;;;;;4.80;2.17;;;;;;;17.48;38.27;100794.63;5033069;28;20114;-72
2023/03/12 04:21:59;;;;;;;5.65;2.20;;;;;;;17.43;38.08;100789.72;5033049;28;20032;-71
2023/03/12 04:24:25;;;;;;;5.57;2.70;;;;;;;17.45;37.99;100793.09;5021868;28;20038;-69
2023/03/12 04:26:50;;;;;;;7.30;2.28;;;;;;;17.44;38.11;100786.13;5023494;28;20055;-69
2023/03/12 04:29:17;;;;;;;6.30;2.45;;;;;;;17.44;37.68;100778.22;5033245;28;20500;-71
2023/03/12 04:31:42;;;;;;;5.72;2.40;;;;;;;17.46;38.02;100776.31;5032533;28;20103;-70
2023/03/12 04:34:08;;;;;;;5.50;2.35;;;;;;;17.43;38.10;100766.00;5032283;28;20029;-69
2023/03/12 04:36:33;;;;;;;4.72;2.17;;;;;;;17.45;37.93;100761.47;5032694;28;20400;-69
2023/03/12 04:38:58;;;;;;;5.00;2.33;;;;;;;17.45;37.87;100764.09;5032815;28;20039;-68
2023/03/12 04:41:24;;;;;;;5.30;2.50;;;;;;;17.43;37.82;100755.47;5031987;28;20027;-71
2023/03/12 04:43:49;;;;;;;4.85;2.42;;;;;;;17.44;37.87;100753.69;5032088;28;20473;-69
2023/03/12 04:46:14;;;;;;;5.20;2.25;;;;;;;17.44;37.63;100766.88;5032230;28;20712;-70
2023/03/12 04:48:40;;;;;;;4.60;2.50;;;;;;;17.45;37.69;100769.38;5031643;28;20041;-69
2023/03/12 04:51:05;;;;;;;6.45;2.30;;;;;;;17.43;37.60;100768.63;5031907;28;20248;-70
2023/03/12 04:53:31;;;;;;;4.10;2.20;;;;;;;17.42;37.59;100764.34;5031109;28;20056;-69
2023/03/12 04:55:56;;;;;;;3.83;1.90;;;;;;;17.46;37.64;100767.56;5032684;28;20079;-69
2023/03/12 04:58:22;;;;;;;5.13;2.38;;;;;;;17.45;37.52;100755.34;5032624;28;20049;-70
2023/03/12 05:00:48;;;;;;;4.70;2.20;;;;;;;17.41;37.68;100747.69;5032344;28;20036;-72
2023/03/12 05:03:14;;;;;;;4.63;2.17;;;;;;;17.44;37.46;100745.78;5032304;28;20030;-70
2023/03/12 05:05:40;;;;;;;5.03;2.30;;;;;;;17.43;37.54;100742.28;5032448;28;20120;-69
2023/03/12 05:08:05;;;;;;;5.82;2.40;;;;;;;17.43;37.53;100730.94;5032057;28;20120;-69
2023/03/12 05:10:31;;;;;;;4.68;2.00;;;;;;;17.43;37.59;100729.13;5033104;28;20048;-70
2023/03/12 05:12:56;;;;;;;5.10;2.20;;;;;;;17.46;37.41;100725.41;5031881;28;20037;-69
2023/03/12 05:15:22;;;;;;;4.07;2.13;;;;;;;17.45;37.26;100716.69;5031588;28;20503;-71
2023/03/12 05:17:48;;;;;;;5.57;2.20;;;;;;;17.43;37.34;100713.31;5030394;28;20041;-68
2023/03/12 05:20:13;;;;;;;4.53;2.15;;;;;;;17.45;37.73;100721.09;5032098;28;20043;-70
2023/03/12 05:22:39;;;;;;;5.60;2.40;;;;;;;17.45;37.87;100723.72;5031882;28;20038;-69
2023/03/12 05:25:05;;;;;;;6.07;2.50;;;;;;;17.45;38.98;100711.41;5031885;28;20029;-68
2023/03/12 05:27:31;;;;;;;6.20;2.50;;;;;;;17.44;39.68;100714.19;5022243;28;20036;-70
2023/03/12 05:29:56;;;;;;;5.07;2.42;;;;;;;17.41;39.56;100716.06;5031501;28;20041;-70
2023/03/12 05:32:21;;;;;;;6.20;2.25;;;;;;;17.43;39.88;100717.75;5031773;28;20029;-69
2023/03/12 05:34:47;;;;;;;5.65;2.50;;;;;;;17.46;39.91;100725.41;5030815;28;20029;-69
2023/03/12 05:37:13;;;;;;;4.82;2.10;;;;;;;17.45;40.08;100715.81;5032119;28;20041;-69
2023/03/12 05:39:39;;;;;;;4.75;1.90;;;;;;;17.43;39.73;100700.16;5031803;28;20041;-69
2023/03/12 05:42:08;;;;;;;4.65;2.00;;;;;;;17.44;39.67;100701.81;5031400;28;20037;-70
2023/03/12 05:44:34;;;;;;;3.97;1.90;;;;;;;17.49;39.84;100698.81;5031490;28;20485;-69
2023/03/12 05:46:59;;;;;;;5.30;2.08;;;;;;;17.49;39.88;100696.19;5031170;28;20040;-69
2023/03/12 05:49:24;;;;;;;4.40;2.08;;;;;;;17.55;40.23;100700.97;5031763;28;20041;-70
2023/03/12 05:51:50;;;;;;;4.32;1.92;;;;;;;17.58;40.17;100695.44;5031057;28;20025;-70
2023/03/12 05:54:17;;;;;;;4.25;1.90;;;;;;;17.64;40.13;100697.59;5031495;28;20040;-70
2023/03/12 05:56:42;;;;;;;4.13;1.60;;;;;;;17.71;40.31;100701.38;5031269;28;20127;-71
2023/03/12 05:59:09;;;;;;;5.15;1.90;;;;;;;17.68;40.23;100683.19;5031178;28;20565;-71
2023/03/12 06:01:35;;;;;;;4.80;1.77;;;;;;;17.79;40.39;100698.13;5031505;28;20037;-70
2023/03/12 06:04:00;;;;;;;4.13;1.75;;;;;;;17.82;40.23;100694.41;5031355;28;20037;-70
2023/03/12 06:06:25;;;;;;;3.42;1.60;;;;;;;17.86;40.21;100704.56;5031312;28;20102;-69
2023/03/12 06:08:51;;;;;;;4.47;1.83;;;;;;;17.89;40.19;100712.25;5030923;28;20033;-69
2023/03/12 06:11:17;;;;;;;4.90;1.60;;;;;;;17.91;40.61;100707.69;5031752;28;20032;-68
2023/03/12 06:13:42;;;;;;;3.58;1.88;;;;;;;17.93;40.47;100710.22;5030888;28;20052;-69
2023/03/12 06:16:16;;;;;;;3.58;1.65;;;;;;;17.93;40.61;100704.94;5031192;28;20034;-70
2023/03/12 06:18:42;;;;;;;3.63;1.40;;;;;;;17.95;40.71;100711.75;5030283;28;20061;-71
2023/03/12 06:21:12;;;;;;;5.38;1.70;;;;;;;17.99;40.69;100714.13;5031252;28;20041;-69
2023/03/12 06:23:38;;;;;;;4.63;1.60;;;;;;;17.97;40.51;100722.16;5031570;28;20087;-71
2023/03/12 06:26:04;;;;;;;3.78;1.50;;;;;;;17.99;40.67;100720.25;5029519;28;21392;-70
2023/03/12 06:28:29;;;;;;;4.10;1.50;;;;;;;18.01;40.75;100720.97;5031348;28;20166;-69
2023/03/12 06:30:55;;;;;;;4.63;1.70;;;;;;;18.02;40.86;100716.50;5031091;28;20037;-69
2023/03/12 06:33:20;;;;;;;4.85;1.83;;;;;;;18.02;40.96;100705.97;5031076;28;20037;-69
2023/03/12 06:35:46;;;;;;;3.50;1.30;;;;;;;18.03;40.73;100703.19;5031713;28;20465;-69
2023/03/12 06:38:12;;;;;;;4.85;1.60;;;;;;;18.05;40.91;100706.53;5028669;28;20484;-71
2023/03/12 06:40:37;;;;;;;3.88;1.40;;;;;;;18.04;41.13;100704.03;5031549;28;20029;-71
2023/03/12 06:43:03;;;;;;;4.35;1.30;;;;;;;18.05;40.89;100692.53;5020977;28;20121;-69
2023/03/12 06:45:28;;;;;;;3.63;1.50;;;;;;;18.04;41.33;100685.56;5030631;28;20484;-70
2023/03/12 06:47:53;;;;;;;4.45;1.58;;;;;;;18.05;41.29;100685.44;5033514;28;20033;-70
2023/03/12 06:50:19;;;;;;;3.97;1.55;;;;;;;18.08;41.39;100679.09;5035085;28;20038;-70
2023/03/12 06:52:44;;;;;;;4.70;1.50;;;;;;;18.09;41.26;100670.22;5034266;28;20425;-70
2023/03/12 06:55:09;;;;;;;2.97;1.30;;;;;;;18.09;41.46;100662.31;5034526;28;20041;-71
2023/03/12 06:57:34;;;;;;;3.22;1.35;;;;;;;18.11;41.30;100668.28;5034488;28;20077;-71
2023/03/12 07:00:00;;;;;;;3.47;1.30;;;;;;;18.13;41.38;100667.19;5034600;28;20442;-69
2023/03/12 07:02:25;;;;;;;4.00;1.55;;;;;;;18.14;41.50;100668.03;5034718;28;20468;-69
2023/03/12 07:04:51;;;;;;;4.28;1.65;;;;;;;18.15;41.22;100664.44;5034727;28;20041;-71
2023/03/12 07:07:17;;;;;;;3.13;1.33;;;;;;;18.14;41.48;100649.56;5033888;28;20505;-69
2023/03/12 07:09:42;;;;;;;4.70;1.52;;;;;;;18.15;41.50;100658.31;5033741;28;20404;-69
2023/03/12 07:12:08;;;;;;;2.90;1.23;;;;;;;18.15;41.67;100655.66;5033992;28;20143;-68
2023/03/12 07:14:33;;;;;;;3.13;1.20;;;;;;;18.17;41.64;100665.13;5034043;28;20057;-69
2023/03/12 07:17:00;;;;;;;4.05;1.45;;;;;;;18.16;41.59;100658.16;5034458;28;20037;-69
2023/03/12 07:19:26;;;;;;;4.03;1.58;;;;;;;18.19;41.78;100659.72;5033453;28;20111;-68
2023/03/12 07:21:51;;;;;;;3.10;1.27;;;;;;;18.18;41.49;100661.50;5033751;28;20037;-69
2023/03/12 07:24:16;;;;;;;3.33;1.45;;;;;;;18.20;41.76;100658.75;5034277;28;20106;-69
2023/03/12 07:26:42;;;;;;;3.00;1.25;;;;;;;18.21;41.76;100666.53;5033635;28;20030;-69
2023/03/12 07:29:07;;;;;;;4.72;1.23;;;;;;;18.24;41.75;100670.72;5033676;28;20029;-70
2023/03/12 07:31:33;;;;;;;4.63;1.42;;;;;;;18.23;42.03;100663.75;5034521;28;21273;-68
2023/03/12 07:33:58;;;;;;;3.38;1.30;;;;;;;18.23;41.81;100679.59;5033651;28;20033;-68
2023/03/12 07:36:23;;;;;;;3.72;1.30;;;;;;;18.23;42.10;100672.53;5033770;28;20125;-70
2023/03/12 07:38:49;;;;;;;3.78;1.50;;;;;;;18.22;41.90;100676.13;5033089;28;20041;-69
2023/03/12 07:41:14;;;;;;;3.97;1.40;;;;;;;18.28;42.00;100685.34;5033977;28;20114;-69
2023/03/12 07:43:39;;;;;;;3.92;1.33;;;;;;;18.27;42.20;100673.94;5023882;28;20039;-71
2023/03/12 07:46:05;;;;;;;2.92;1.42;;;;;;;18.29;42.04;100681.72;5033684;28;20031;-70
2023/03/12 07:48:30;;;;;;;3.80;1.30;;;;;;;18.29;41.86;100684.34;5032705;28;20037;-68
2023/03/12 07:50:55;;;;;;;2.95;1.38;;;;;;;18.28;41.99;100677.41;5033810;28;20465;-69
2023/03/12 07:53:21;;;;;;;3.00;1.30;;;;;;;18.30;42.10;100675.47;5031892;28;20064;-72
2023/03/12 07:55:46;;;;;;;3.65;1.58;;;;;;;18.26;42.26;100677.56;5033426;28;20029;-70
2023/03/12 07:58:12;;;;;;;3.92;1.60;;;;;;;18.30;42.67;100676.31;5033404;28;20580;-70
2023/03/12 08:00:38;;;;;;;3.58;1.30;;;;;;;18.31;42.86;100674.53;5023999;28;20083;-71
2023/03/12 08:03:03;;;;;;;3.67;1.42;;;;;;;18.28;43.14;100670.34;5023783;28;20039;-70
2023/03/12 08:05:29;;;;;;;3.85;1.40;;;;;;;18.31;43.19;100669.25;5030993;28;20589;-72
2023/03/12 08:07:54;;;;;;;4.05;1.55;;;;;;;18.31;43.32;100661.34;5033205;28;20041;-69
2023/03/12 08:10:20;;;;;;;4.50;1.42;;;;;;;18.33;43.48;100669.94;5033081;28;20040;-69
2023/03/12 08:12:45;;;;;;;3.35;1.35;;;;;;;18.30;43.76;100668.41;5033312;28;20040;-69
2023/03/12 08:15:12;;;;;;;3.90;1.45;;;;;;;18.36;43.50;100667.06;5033494;28;21097;-69
2023/03/12 08:17:39;;;;;;;2.47;1.17;;;;;;;18.39;43.97;100668.56;5033009;28;20033;-69
2023/03/12 08:20:08;;;;;;;4.03;1.30;;;;;;;18.39;43.70;100665.94;5032671;28;20158;-70
2023/03/12 08:22:33;;;;;;;4.10;1.45;;;;;;;18.39;43.76;100677.34;5023472;28;20036;-69
2023/03/12 08:24:58;;;;;;;3.72;1.50;;;;;;;18.39;44.11;100669.44;5033387;28;20037;-70
2023/03/12 08:27:24;;;;;;;3.63;1.40;;;;;;;18.41;44.17;100670.13;5033001;28;20033;-70
2023/03/12 08:29:49;;;;;;;4.55;1.40;;;;;;;18.43;44.29;100672.63;5033180;28;20087;-69
2023/03/12 08:32:14;;;;;;;3.38;1.30;;;;;;;18.46;44.18;100677.66;5032721;28;20037;-69
2023/03/12 08:34:39;;;;;;;2.50;1.10;;;;;;;18.46;44.00;100672.38;5032704;28;20044;-70
2023/03/12 08:37:05;;;;;;;3.33;1.40;;;;;;;18.46;43.76;100689.03;5030786;28;20047;-72
2023/03/12 08:39:30;;;;;;;3.22;1.27;;;;;;;18.52;43.73;100687.69;5030697;28;20033;-69
2023/03/12 08:41:56;;;;;;;3.92;1.40;;;;;;;18.62;43.24;100688.56;5031982;28;20384;-71
2023/03/12 08:44:21;;;;;;;3.88;1.42;;;;;;;18.70;42.92;100693.19;5032148;28;20083;-72
2023/03/12 08:46:47;;;;;;;4.18;1.33;;;;;;;18.75;42.68;100695.44;5031851;28;20544;-71
2023/03/12 08:49:12;;;;;;;3.58;1.30;;;;;;;18.76;42.25;100697.94;5031170;28;20028;-72
2023/03/12 08:51:37;;;;;;;3.55;1.88;;;;;;;18.78;42.20;100703.09;5031239;28;20037;-69
2023/03/12 08:54:04;;;;;;;3.45;1.20;;;;;;;18.80;42.35;100702.00;5030838;28;20294;-72
2023/03/12 08:56:30;;;;;;;3.40;1.25;;;;;;;18.82;42.15;100705.34;5031496;28;20025;-69
2023/03/12 08:58:57;;;;;;;3.97;1.27;;;;;;;18.84;42.16;100708.69;5031414;28;20029;-71
2023/03/12 09:01:22;;;;;;;3.20;1.20;;;;;;;18.87;42.21;100707.63;5031242;28;20408;-72
2023/03/12 09:03:49;;;;;;;3.30;1.20;;;;;;;18.85;42.14;100702.47;5030574;28;20044;-66
2023/03/12 09:06:15;;;;;;;3.78;1.10;;;;;;;18.86;42.35;100703.28;5030787;28;20393;-71
2023/03/12 09:08:42;;;;;;;3.80;1.02;;;;;;;18.95;41.84;100706.94;5031127;28;20043;-71
2023/03/12 09:11:09;;;;;;;3.50;1.27;;;;;;;18.96;42.12;100704.19;5029378;28;20036;-68
2023/03/12 09:13:35;;;;;;;4.95;1.35;;;;;;;19.02;41.83;100716.81;5021794;28;20492;-69
2023/03/12 09:16:01;;;;;;;3.70;1.60;;;;;;;19.01;41.99;100707.25;5032237;28;20044;-69
2023/03/12 09:18:28;;;;;;;3.30;1.42;;;;;;;19.03;41.79;100707.94;5030642;28;20045;-68
2023/03/12 09:20:54;;;;;;;3.58;1.35;;;;;;;19.06;41.48;100701.56;5030936;28;20057;-69
2023/03/12 09:23:19;;;;;;;3.22;1.30;;;;;;;19.13;41.84;100710.59;5021451;28;20099;-70
2023/03/12 09:25:45;;;;;;;3.17;1.40;;;;;;;19.15;41.34;100700.75;5031369;28;20037;-70
2023/03/12 09:28:11;;;;;;;2.72;1.27;;;;;;;19.15;41.44;100697.25;5030880;28;20342;-69
2023/03/12 09:30:36;;;;;;;3.10;1.30;;;;;;;19.13;41.70;100710.59;5031130;28;20043;-69
2023/03/12 09:33:02;;;;;;;3.88;1.50;;;;;;;19.18;41.42;100720.78;5031416;28;20133;-72
2023/03/12 09:35:27;;;;;;;3.05;1.10;;;;;;;19.16;41.54;100710.34;5029285;28;20424;-74
2023/03/12 09:37:52;;;;;;;3.20;1.40;;;;;;;19.18;41.55;100718.13;5030594;28;20063;-69
2023/03/12 09:40:24;;;;;;;10.60;1.42;;;;;;;19.17;41.69;100703.28;5030530;28;20072;-73
2023/03/12 09:42:56;;;;;;;3.15;1.20;;;;;;;19.07;42.00;100708.50;5029757;28;20033;-71
2023/03/12 09:45:27;;;;;;;2.97;1.38;;;;;;;19.02;42.06;100708.91;5029803;28;20241;-70
2023/03/12 09:47:56;;;;;;;3.08;1.25;;;;;;;19.02;42.24;100708.06;5031163;28;20033;-68
2023/03/12 09:50:39;;;;;;;4.20;1.50;;;;;;;19.00;42.48;100717.94;5028609;28;20033;-73
2023/03/12 09:53:21;;;;;;;5.35;1.60;;;;;;;19.05;42.94;100725.47;5031492;28;20065;-68
2023/03/12 09:55:49;;;;;;;3.40;1.40;;;;;;;19.03;43.24;100731.72;5030766;28;20041;-67
2023/03/12 09:58:31;;;;;;;5.22;1.50;;;;;;;19.06;43.49;100745.59;5031080;28;20041;-67
2023/03/12 10:01:24;;;;;;;4.03;1.70;;;;;;;19.06;43.80;100738.53;5030590;28;20533;-70
2023/03/12 10:04:17;;;;;;;5.07;1.90;;;;;;;19.09;44.11;100750.63;5031393;28;20082;-69
2023/03/12 10:07:10;;;;;;;3.60;1.50;;;;;;;19.11;44.44;100740.78;5030262;28;20068;-69
2023/03/12 10:10:03;;;;;;;5.70;1.50;;;;;;;19.11;44.66;100741.63;5030932;28;20048;-67
2023/03/12 10:12:40;;;;;;;4.72;1.48;;;;;;;19.11;44.71;100744.25;5030864;28;20044;-71
2023/03/12 10:15:31;;;;;;;7.03;1.55;;;;;;;19.10;44.92;100741.75;5031305;28;20032;-70
2023/03/12 10:18:06;;;;;;;5.45;1.67;;;;;;;19.11;44.94;100748.72;5031123;28;20501;-70
2023/03/12 10:20:44;;;;;;;4.68;1.80;;;;;;;19.10;45.18;100750.50;5031799;28;20499;-70
2023/03/12 10:23:20;;;;;;;4.53;1.60;;;;;;;19.10;45.20;100744.38;5034751;28;20040;-70
2023/03/12 10:25:53;;;;;;;4.72;1.42;;;;;;;19.10;45.45;100736.47;5034981;28;20188;-73
2023/03/12 10:28:40;;;;;;;5.05;1.80;;;;;;;19.14;45.30;100745.81;5035063;28;20037;-71
2023/03/12 10:31:14;;;;;;;6.57;1.65;;;;;;;19.13;45.16;100744.94;5034948;28;20040;-71
2023/03/12 10:33:46;;;;;;;5.97;1.90;;;;;;;19.11;45.38;100744.25;5033482;28;20033;-68
2023/03/12 10:36:16;;;;;;;6.13;1.73;;;;;;;19.13;45.60;100744.94;5034608;28;20033;-70
2023/03/12 10:38:41;;;;;;;8.45;1.98;;;;;;;19.13;45.55;100750.22;5034531;28;20033;-70
2023/03/12 10:41:26;;;;;;;6.35;1.85;;;;;;;19.09;46.12;100734.78;5035565;28;20044;-71
2023/03/12 10:43:54;;;;;;;8.35;2.10;;;;;;;19.09;46.17;100745.34;5034039;28;20037;-70
2023/03/12 10:46:42;;;;;;;4.20;2.20;;;;;;;19.08;46.36;100730.50;5035213;28;20081;-69
2023/03/12 10:49:20;;;;;;;4.93;2.33;;;;;;;19.10;45.82;100737.28;5034149;28;21112;-71
2023/03/12 10:51:57;;;;;;;6.85;2.30;;;;;;;19.09;45.80;100735.63;5035086;28;20840;-68
2023/03/12 10:54:36;;;;;;;6.68;2.00;;;;;;;19.04;45.68;100724.63;5034765;28;20032;-71
2023/03/12 10:57:02;;;;;;;7.63;2.28;;;;;;;19.06;45.84;100738.53;5035131;28;20477;-68
2023/03/12 10:59:31;;;;;;;8.38;2.05;;;;;;;19.07;46.08;100734.91;5034480;28;20047;-70
2023/03/12 11:01:57;;;;;;;5.18;2.10;;;;;;;19.06;46.08;100735.03;5034304;28;20197;-69
2023/03/12 11:04:25;;;;;;;5.22;2.00;;;;;;;19.05;46.44;100726.28;5034628;28;20525;-71
2023/03/12 11:07:28;;;;;;;5.28;2.10;;;;;;;19.09;46.61;100740.06;5034038;28;20036;-69
2023/03/12 11:10:13;;;;;;;7.63;2.40;;;;;;;19.10;46.64;100747.84;5033725;28;20039;-69
2023/03/12 11:12:39;;;;;;;7.32;2.42;;;;;;;19.07;46.44;100747.28;5033958;28;20040;-70
2023/03/12 11:15:34;;;;;;;5.68;2.00;;;;;;;19.07;46.94;100748.13;5034353;28;20112;-69
2023/03/12 11:18:36;;;;;;;7.50;2.13;;;;;;;19.09;47.07;100756.78;5034290;28;20476;-70
2023/03/12 11:21:07;;;;;;;4.60;2.15;;;;;;;19.09;47.13;100754.13;5038478;28;20551;-69
2023/03/12 11:23:32;;;;;;;11.45;2.28;;;;;;;19.09;47.05;100753.28;5032526;28;20049;-68
2023/03/12 11:25:59;;;;;;;10.38;2.58;;;;;;;19.12;46.62;100761.78;5024841;28;20496;-71
2023/03/12 11:28:38;;;;;;;10.30;2.35;;;;;;;19.18;46.70;100749.84;5033902;28;20030;-72